Time;durP1;ratioP1;P1;durP2;ratioP2;P2;SDS_P1;SDS_P2;PMS_P1;PMS_P2;Temp;Humidity;BMP_temperature;BMP_pressure;BME280_temperature;BME280_humidity;BME280_pressure;Samples;Min_cycle;Max_cycle;Signal;HPM_P1;HPM_P2
2022/06/03 00:03:24;;;;;;;2.03;1.25;;;;;;;15.12;49.67;99896.16;12208125;19;20014;-79
2022/06/03 00:07:52;;;;;;;2.63;1.30;;;;;;;15.20;49.22;99894.75;12183677;19;20792;-79
2022/06/03 00:12:03;;;;;;;2.58;1.05;;;;;;;15.26;49.23;99893.66;12194113;19;20010;-79
2022/06/03 00:16:31;;;;;;;2.33;1.10;;;;;;;15.32;49.29;99889.75;12180107;19;20026;-80
2022/06/03 00:20:51;;;;;;;1.88;1.30;;;;;;;15.44;48.64;99886.69;12264997;19;20006;-79
2022/06/03 00:25:24;;;;;;;2.70;1.27;;;;;;;15.58;48.18;99884.97;12189166;19;20031;-79
2022/06/03 00:29:53;;;;;;;2.38;1.17;;;;;;;15.69;47.27;99872.75;12206865;19;20090;-78
2022/06/03 00:34:08;;;;;;;1.67;1.13;;;;;;;15.82;46.58;99879.66;12188741;19;20006;-78
2022/06/03 00:38:42;;;;;;;1.30;1.20;;;;;;;15.86;46.41;99866.88;12213626;19;20018;-78
2022/06/03 00:43:08;;;;;;;1.70;1.20;;;;;;;15.86;46.52;99871.63;12178841;19;20398;-78
2022/06/03 00:47:31;;;;;;;2.35;1.10;;;;;;;15.80;46.53;99872.75;12202114;19;20009;-78
2022/06/03 00:51:58;;;;;;;1.80;1.27;;;;;;;15.75;46.56;99865.25;12214962;19;20017;-78
2022/06/03 00:56:22;;;;;;;3.35;1.20;;;;;;;15.64;46.19;99867.19;12188374;19;20733;-78
2022/06/03 01:00:28;;;;;;;2.00;1.15;;;;;;;15.62;46.65;99869.44;12206189;19;20010;-78
2022/06/03 01:04:40;;;;;;;2.58;1.20;;;;;;;15.60;46.71;99866.09;12184687;19;20377;-79
2022/06/03 01:09:00;;;;;;;1.48;1.13;;;;;;;15.63;46.46;99871.09;12202805;19;20030;-79
2022/06/03 01:13:27;;;;;;;2.83;1.30;;;;;;;15.60;46.66;99865.25;12185531;19;20413;-78
2022/06/03 01:17:57;;;;;;;1.40;1.02;;;;;;;15.59;46.78;99863.63;12209744;19;20031;-79
2022/06/03 01:22:08;;;;;;;2.15;1.30;;;;;;;15.59;46.91;99863.63;12190387;19;20014;-78
2022/06/03 01:26:52;;;;;;;2.35;1.30;;;;;;;15.58;46.75;99873.03;12204341;19;20838;-79
2022/06/03 01:31:31;;;;;;;1.50;1.13;;;;;;;15.52;47.22;99871.38;12187068;19;20465;-79
2022/06/03 01:36:01;;;;;;;9.07;1.38;;;;;;;15.46;47.38;99862.22;12203526;19;20011;-78
2022/06/03 01:40:27;;;;;;;1.88;1.20;;;;;;;15.39;47.64;99853.38;12183938;19;20021;-78
2022/06/03 01:45:00;;;;;;;1.88;1.27;;;;;;;15.35;47.55;99863.34;12200695;19;20078;-79
2022/06/03 01:49:40;;;;;;;3.05;1.42;;;;;;;15.33;47.96;99869.19;12176925;19;20108;-79
2022/06/03 01:54:29;;;;;;;3.20;1.42;;;;;;;15.38;47.70;99879.47;12195044;19;20073;-79
2022/06/03 01:59:06;;;;;;;2.83;1.40;;;;;;;15.35;47.80;99872.53;12186325;19;20011;-79
2022/06/03 02:03:49;;;;;;;2.58;1.50;;;;;;;15.32;48.03;99877.81;12203323;19;20062;-79
2022/06/03 02:08:04;;;;;;;2.13;1.33;;;;;;;15.28;47.89;99869.19;12181922;19;20014;-78
2022/06/03 02:12:24;;;;;;;1.35;1.25;;;;;;;15.18;48.24;99872.00;12197345;19;20009;-78
2022/06/03 02:17:00;;;;;;;1.88;1.42;;;;;;;15.06;48.51;99863.13;12184361;19;20006;-78
2022/06/03 02:21:14;;;;;;;2.13;1.50;;;;;;;14.95;48.92;99860.34;12200819;19;20038;-78
2022/06/03 02:25:21;;;;;;;3.42;1.30;;;;;;;14.83;49.10;99859.78;12177972;19;20006;-78
2022/06/03 02:34:24;;;;;;;1.63;1.20;;;;;;;14.63;49.94;99862.53;12174601;19;20003;-78
2022/06/03 02:39:03;;;;;;;3.38;1.40;;;;;;;14.53;50.20;99855.88;12194960;19;20027;-78
2022/06/03 02:43:25;;;;;;;3.40;1.35;;;;;;;14.46;50.45;99848.91;12181774;19;20418;-78
2022/06/03 02:47:35;;;;;;;1.53;1.20;;;;;;;14.38;50.81;99841.97;12199583;19;20006;-79
2022/06/03 02:51:55;;;;;;;2.03;1.13;;;;;;;14.31;51.08;99844.19;12185001;19;20875;-78
2022/06/03 02:56:02;;;;;;;1.42;1.30;;;;;;;14.27;51.20;99852.19;12192160;19;20017;-78
2022/06/03 03:00:28;;;;;;;2.50;1.33;;;;;;;14.23;51.60;99847.47;12205546;19;20368;-78
2022/06/03 03:04:52;;;;;;;2.28;1.40;;;;;;;14.18;51.88;99853.00;12172988;19;20090;-78
2022/06/03 03:09:17;;;;;;;2.42;1.20;;;;;;;14.14;51.74;99844.41;12190578;19;20032;-78
2022/06/03 03:13:49;;;;;;;3.35;1.30;;;;;;;14.09;52.38;99856.28;12179412;19;20011;-78
2022/06/03 03:18:26;;;;;;;3.43;1.40;;;;;;;14.03;52.99;99853.78;12201998;19;20025;-77
2022/06/03 03:23:06;;;;;;;5.63;1.60;;;;;;;13.94;54.08;99860.94;12173734;19;20018;-78
2022/06/03 03:27:43;;;;;;;1.77;1.35;;;;;;;13.84;54.39;99858.97;12197130;19;20038;-79
2022/06/03 03:32:01;;;;;;;2.13;1.52;;;;;;;13.79;54.53;99853.41;12162969;19;20015;-78
2022/06/03 03:36:44;;;;;;;1.92;1.40;;;;;;;13.74;54.61;99847.84;12194138;19;20010;-78
2022/06/03 03:41:19;;;;;;;1.77;1.25;;;;;;;13.84;54.90;99850.66;12208992;19;20006;-78
2022/06/03 03:45:46;;;;;;;2.42;1.67;;;;;;;13.88;54.42;99854.56;12211218;19;20014;-79
2022/06/03 03:50:17;;;;;;;1.95;1.30;;;;;;;13.91;54.45;99852.06;12176961;19;20030;-79
2022/06/03 03:54:42;;;;;;;2.22;1.27;;;;;;;14.00;54.40;99852.38;12191293;19;20017;-78
2022/06/03 03:59:10;;;;;;;3.03;1.60;;;;;;;14.03;54.81;99840.75;12178200;19;20021;-78
2022/06/03 04:03:42;;;;;;;2.25;1.38;;;;;;;14.05;55.04;99833.00;12192782;19;20043;-78
2022/06/03 04:08:08;;;;;;;5.28;1.50;;;;;;;14.09;55.12;99825.81;12173011;19;20015;-78
2022/06/03 04:12:25;;;;;;;4.10;2.00;;;;;;;14.17;54.75;99834.72;12202033;19;20484;-78
2022/06/03 04:16:56;;;;;;;2.15;1.33;;;;;;;14.24;55.31;99815.88;12174981;19;20070;-79
2022/06/03 04:21:35;;;;;;;4.28;1.52;;;;;;;14.35;54.91;99812.84;12205951;19;20008;-78
2022/06/03 04:26:03;;;;;;;1.98;1.40;;;;;;;14.45;54.40;99820.34;12191879;19;20342;-78
2022/06/03 04:30:42;;;;;;;2.30;1.23;;;;;;;14.52;54.84;99823.72;12194283;19;20006;-78
2022/06/03 04:35:08;;;;;;;1.60;1.13;;;;;;;14.65;54.56;99821.50;12182265;19;20010;-78
2022/06/03 04:39:47;;;;;;;3.13;1.60;;;;;;;14.72;54.77;99813.72;12205351;19;20077;-79
2022/06/03 04:43:52;;;;;;;2.72;1.77;;;;;;;14.82;54.08;99822.06;12180777;19;20014;-78
2022/06/03 04:48:18;;;;;;;3.15;1.80;;;;;;;14.98;54.71;99812.63;12208535;19;21378;-79
2022/06/03 04:52:41;;;;;;;2.20;1.60;;;;;;;15.06;55.14;99813.19;12182559;19;20078;-77
2022/06/03 04:57:13;;;;;;;3.80;1.40;;;;;;;15.09;55.23;99809.84;12242058;19;20014;-78
2022/06/03 05:01:38;;;;;;;2.65;1.70;;;;;;;15.19;54.98;99813.41;12232129;19;20014;-78
2022/06/03 05:06:31;;;;;;;1.95;1.17;;;;;;;15.38;54.48;99808.13;12244080;19;20340;-79
2022/06/03 05:11:01;;;;;;;3.83;1.52;;;;;;;15.62;54.15;99804.72;12214158;19;20048;-80
2022/06/03 05:15:16;;;;;;;3.47;1.92;;;;;;;15.78;54.29;99809.13;12234212;19;20010;-79
2022/06/03 05:19:30;;;;;;;5.15;1.52;;;;;;;15.93;54.06;99811.81;12206393;19;20045;-80
2022/06/03 05:23:56;;;;;;;1.83;1.38;;;;;;;16.02;53.70;99811.22;12238859;19;20010;-79
2022/06/03 05:28:22;;;;;;;1.50;1.23;;;;;;;16.14;53.59;99800.59;12203880;19;20012;-80
2022/06/03 05:32:32;;;;;;;6.40;1.45;;;;;;;16.18;52.69;99790.56;12224635;19;20014;-80
2022/06/03 05:36:52;;;;;;;1.77;1.40;;;;;;;16.30;52.68;99802.19;12218710;19;20028;-80
2022/06/03 05:46:45;;;;;;;3.05;1.50;;;;;;;16.48;52.13;99816.50;12185832;19;20472;-79
2022/06/03 05:51:05;;;;;;;2.28;1.27;;;;;;;16.58;52.21;99816.44;12211055;19;20003;-80
2022/06/03 05:55:25;;;;;;;5.47;1.60;;;;;;;16.61;52.16;99816.69;12189428;19;20007;-80
2022/06/03 05:59:39;;;;;;;4.05;1.58;;;;;;;16.70;52.42;99819.69;12215404;19;20053;-80
2022/06/03 06:03:53;;;;;;;2.08;1.50;;;;;;;16.77;52.92;99820.19;12191951;19;20033;-81
2022/06/03 06:08:21;;;;;;;2.03;1.48;;;;;;;16.89;52.46;99821.78;12203057;19;20436;-81
2022/06/03 06:12:48;;;;;;;1.30;1.10;;;;;;;17.07;52.29;99821.06;12204165;19;20010;-81
2022/06/03 06:16:53;;;;;;;4.45;1.70;;;;;;;17.26;51.98;99818.38;12186588;19;20010;-81
2022/06/03 06:21:13;;;;;;;3.08;1.75;;;;;;;17.40;51.73;99827.72;12208415;19;20082;-81
2022/06/03 06:25:25;;;;;;;3.38;1.50;;;;;;;17.46;51.37;99834.03;12183345;19;20068;-81
2022/06/03 06:29:48;;;;;;;2.10;1.50;;;;;;;17.58;50.88;99840.06;12201085;19;20647;-81
2022/06/03 06:34:11;;;;;;;5.03;1.60;;;;;;;17.72;51.28;99837.38;12174219;19;20349;-80
2022/06/03 06:38:46;;;;;;;3.58;1.70;;;;;;;17.84;50.53;99853.69;12195306;19;20047;-80
2022/06/03 06:43:32;;;;;;;3.15;1.40;;;;;;;18.02;50.98;99855.69;12167367;19;21309;-80
2022/06/03 06:47:44;;;;;;;3.85;1.48;;;;;;;18.31;49.96;99840.81;12203633;19;20015;-79
2022/06/03 06:52:15;;;;;;;5.03;1.40;;;;;;;18.63;49.43;99838.13;12180374;19;20031;-80
2022/06/03 06:56:32;;;;;;;2.38;1.55;;;;;;;18.89;48.99;99837.75;12206387;19;20419;-79
2022/06/03 07:00:38;;;;;;;2.55;1.40;;;;;;;19.07;49.15;99833.25;12207309;19;20039;-80
2022/06/03 07:04:49;;;;;;;3.50;1.90;;;;;;;19.14;49.02;99830.88;12209577;19;20021;-78
2022/06/03 07:09:10;;;;;;;3.35;1.52;;;;;;;19.30;48.19;99831.44;12210449;19;20390;-81
2022/06/03 07:13:19;;;;;;;2.80;1.70;;;;;;;19.56;48.51;99827.00;12184616;19;20003;-79
2022/06/03 07:22:11;;;;;;;2.50;1.67;;;;;;;20.12;46.93;99819.47;12179432;19;20025;-78
2022/06/03 07:26:21;;;;;;;3.83;1.48;;;;;;;20.19;46.69;99811.47;12202425;19;20540;-80
2022/06/03 07:30:29;;;;;;;2.38;1.63;;;;;;;20.38;47.01;99811.34;12187624;19;20019;-79
2022/06/03 07:34:38;;;;;;;2.72;1.65;;;;;;;20.50;46.49;99813.59;12176965;19;20058;-79
2022/06/03 07:38:48;;;;;;;2.95;1.38;;;;;;;20.52;46.64;99796.47;12195878;19;20338;-80
2022/06/03 07:43:02;;;;;;;3.60;1.58;;;;;;;20.50;46.52;99794.00;12183483;19;20003;-79
2022/06/03 07:47:07;;;;;;;2.17;1.40;;;;;;;20.55;46.23;99776.25;12201195;19;20027;-78
2022/06/03 07:51:16;;;;;;;3.08;1.52;;;;;;;20.45;46.22;99780.13;12186524;19;20007;-79
2022/06/03 07:55:24;;;;;;;2.40;1.40;;;;;;;20.49;46.47;99773.56;12192284;19;20010;-79
2022/06/03 07:59:29;;;;;;;3.70;1.70;;;;;;;20.74;45.72;99764.91;12217697;19;20114;-79
2022/06/03 08:03:37;;;;;;;4.85;1.42;;;;;;;21.00;45.45;99768.69;12211970;19;20019;-79
2022/06/03 08:12:12;;;;;;;4.55;1.60;;;;;;;21.12;45.58;99776.50;12214022;19;20024;-79
2022/06/03 08:16:41;;;;;;;4.90;1.60;;;;;;;21.19;44.89;99759.22;12190531;19;20495;-78
2022/06/03 08:20:48;;;;;;;5.28;1.73;;;;;;;21.43;44.91;99761.69;12213468;19;20011;-78
2022/06/03 08:25:00;;;;;;;4.07;2.10;;;;;;;21.75;44.40;99768.88;12187348;19;20018;-79
2022/06/03 08:29:25;;;;;;;2.90;2.03;;;;;;;22.30;43.53;99759.91;12215008;19;20090;-79
2022/06/03 08:33:52;;;;;;;1.52;1.42;;;;;;;22.68;42.07;99748.03;12213611;19;20010;-78
2022/06/03 08:37:59;;;;;;;4.95;1.65;;;;;;;22.96;41.54;99749.34;12182220;19;20122;-79
2022/06/03 08:42:25;;;;;;;3.58;1.67;;;;;;;23.22;41.27;99744.78;12208662;19;20483;-79
2022/06/03 08:46:35;;;;;;;3.58;1.90;;;;;;;23.19;41.54;99740.66;12181815;19;20019;-79
2022/06/03 08:50:55;;;;;;;5.30;1.60;;;;;;;23.25;41.93;99732.84;12206331;19;20026;-78
2022/06/03 08:55:03;;;;;;;3.50;1.92;;;;;;;23.09;41.56;99730.59;12182335;19;20023;-79
2022/06/03 08:59:17;;;;;;;3.78;2.00;;;;;;;23.22;41.61;99739.16;12234534;19;20601;-80
2022/06/03 09:03:23;;;;;;;3.42;1.83;;;;;;;23.26;42.08;99737.31;12199207;19;20025;-79
2022/06/03 09:07:48;;;;;;;3.92;1.80;;;;;;;23.36;41.40;99739.78;12196072;19;20003;-79
2022/06/03 09:12:17;;;;;;;2.38;2.00;;;;;;;23.18;41.44;99745.44;12214548;19;20014;-79
2022/06/03 09:16:20;;;;;;;4.68;1.90;;;;;;;22.82;42.59;99736.59;12183828;19;20010;-79
2022/06/03 09:20:32;;;;;;;3.13;2.35;;;;;;;23.25;42.41;99750.53;12208627;19;20014;-80
2022/06/03 09:24:37;;;;;;;4.38;2.00;;;;;;;23.76;41.30;99739.41;12191947;19;20022;-79
2022/06/03 09:28:39;;;;;;;2.70;2.10;;;;;;;24.03;40.42;99738.91;12201385;19;20010;-79
2022/06/03 09:32:47;;;;;;;;;;;;;;;24.40;39.31;99738.31;12214034;19;20039;-79
2022/06/03 09:36:49;;;;;;;3.22;2.10;;;;;;;24.63;40.18;99739.63;12190629;19;19928;-79
2022/06/03 09:41:12;;;;;;;4.47;2.30;;;;;;;24.62;39.84;99726.69;12203302;19;20031;-79
2022/06/03 09:45:19;;;;;;;4.65;1.85;;;;;;;24.85;40.49;99723.50;12213573;19;20018;-78
2022/06/03 09:49:25;;;;;;;2.58;2.20;;;;;;;25.06;39.50;99721.44;12185967;19;20010;-80
2022/06/03 09:53:30;;;;;;;;;;;;;;;25.03;39.46;99716.50;12207630;19;20007;-79
2022/06/03 09:57:38;;;;;;;5.60;2.05;;;;;;;25.27;39.80;99712.91;12194589;19;19919;-80
2022/06/03 10:01:40;;;;;;;3.00;2.40;;;;;;;25.46;39.83;99701.91;12202723;19;20015;-80
2022/06/03 10:05:47;;;;;;;4.70;2.60;;;;;;;25.50;39.72;99707.66;12203516;19;20421;-79
2022/06/03 10:14:10;;;;;;;6.28;2.83;;;;;;;26.20;38.30;99712.28;12207083;19;20089;-80
2022/06/03 10:18:15;;;;;;;4.22;2.42;;;;;;;26.59;37.65;99699.31;12203585;19;20023;-79
2022/06/03 10:22:20;;;;;;;4.72;1.92;;;;;;;26.90;37.44;99692.94;12191559;19;20072;-80
2022/06/03 10:26:33;;;;;;;5.65;2.65;;;;;;;27.18;37.28;99692.88;12236742;19;20014;-78
2022/06/03 10:30:41;;;;;;;2.88;1.95;;;;;;;26.82;37.65;99683.44;12214490;19;20010;-79
2022/06/03 10:34:44;;;;;;;3.22;2.35;;;;;;;27.05;37.63;99672.34;12209075;19;20043;-79
2022/06/03 10:38:47;;;;;;;;;;;;;;;26.89;37.67;99674.34;12203356;19;20010;-79
2022/06/03 10:42:51;;;;;;;4.22;2.65;;;;;;;26.87;38.20;99690.03;12182480;19;19914;-80
2022/06/03 10:47:06;;;;;;;4.07;2.50;;;;;;;26.94;38.40;99695.84;12207113;19;20006;-79
2022/06/03 11:04:33;;;;;;;3.67;2.65;;;;;;;28.44;36.29;99673.19;12178665;19;20010;-80
2022/06/03 11:08:59;;;;;;;5.18;2.53;;;;;;;28.30;36.15;99666.00;12202299;19;20040;-80
2022/06/03 11:13:06;;;;;;;3.97;2.72;;;;;;;28.69;36.42;99666.00;12175754;19;20082;-81
2022/06/03 11:17:35;;;;;;;2.90;2.53;;;;;;;29.24;34.91;99663.81;12204286;19;20078;-81
2022/06/03 11:21:39;;;;;;;5.10;2.88;;;;;;;29.29;34.77;99666.31;12172623;19;20048;-80
2022/06/03 11:25:59;;;;;;;3.88;2.60;;;;;;;29.50;34.64;99648.78;12212244;19;20007;-80
2022/06/03 11:30:16;;;;;;;5.28;3.15;;;;;;;29.90;33.95;99632.38;12199353;19;20011;-80
2022/06/03 11:34:40;;;;;;;5.22;2.22;;;;;;;30.15;34.42;99644.88;12182577;19;20022;-80
2022/06/03 11:39:17;;;;;;;7.97;3.00;;;;;;;29.80;33.46;99638.72;12191847;19;20043;-81
2022/06/03 11:43:31;;;;;;;4.20;2.78;;;;;;;29.86;33.59;99618.13;12183391;19;20011;-81
2022/06/03 11:48:02;;;;;;;5.10;2.83;;;;;;;30.14;33.93;99611.19;12203164;19;20015;-81
2022/06/03 11:52:04;;;;;;;4.40;2.60;;;;;;;30.43;33.00;99596.13;12188363;19;20038;-81
2022/06/03 11:56:08;;;;;;;;;;;;;;;30.66;33.21;99595.94;12198387;19;20030;-81
2022/06/03 12:00:13;;;;;;;5.15;2.95;;;;;;;30.65;33.21;99593.50;12201766;19;19955;-80
2022/06/03 12:04:40;;;;;;;3.78;2.97;;;;;;;30.99;32.17;99593.44;12182231;19;20086;-80
2022/06/03 12:08:48;;;;;;;3.50;2.78;;;;;;;30.93;32.16;99586.47;12208070;19;20031;-81
2022/06/03 12:13:15;;;;;;;5.00;3.08;;;;;;;31.24;31.81;99585.94;12175351;19;20358;-81
2022/06/03 12:17:16;;;;;;;5.32;3.03;;;;;;;31.94;31.67;99583.13;12201424;19;20472;-80
2022/06/03 12:21:27;;;;;;;3.70;2.83;;;;;;;32.81;30.13;99563.03;12201453;19;20106;-80
2022/06/03 12:25:32;;;;;;;6.10;3.30;;;;;;;32.79;30.47;99558.97;12189561;19;20511;-80
2022/06/03 12:29:41;;;;;;;4.22;3.20;;;;;;;32.62;30.60;99555.66;12204126;19;20019;-81
2022/06/03 12:33:53;;;;;;;3.53;3.22;;;;;;;33.12;30.11;99563.47;12178201;19;20009;-80
2022/06/03 12:38:20;;;;;;;4.30;3.53;;;;;;;34.08;28.45;99579.59;12202037;19;20011;-81
2022/06/03 12:42:26;;;;;;;5.80;3.50;;;;;;;34.73;27.19;99577.22;12192456;19;20371;-81
2022/06/03 12:46:40;;;;;;;4.13;3.72;;;;;;;34.74;28.13;99570.25;12212972;19;20353;-81
2022/06/03 12:51:19;;;;;;;4.25;3.85;;;;;;;35.37;26.80;99575.88;12212069;19;20007;-81
2022/06/03 12:55:28;;;;;;;6.03;3.72;;;;;;;35.61;26.77;99574.03;12184140;19;20480;-81
2022/06/03 12:59:43;;;;;;;3.70;3.30;;;;;;;34.26;27.68;99585.22;12214654;19;20084;-82
2022/06/03 13:03:45;;;;;;;7.13;3.58;;;;;;;33.31;29.01;99587.91;12196744;19;20015;-81
2022/06/03 13:08:07;;;;;;;4.35;3.75;;;;;;;32.67;29.79;99585.84;12201326;19;20014;-82
2022/06/03 13:12:32;;;;;;;5.07;3.58;;;;;;;32.73;30.46;99584.22;12214125;19;20580;-81
2022/06/03 13:16:37;;;;;;;5.97;3.90;;;;;;;33.18;29.65;99586.72;12193750;19;20066;-81
2022/06/03 13:20:43;;;;;;;5.57;3.83;;;;;;;33.16;29.68;99592.00;12217618;19;20540;-81
2022/06/03 13:25:13;;;;;;;4.03;3.58;;;;;;;32.32;30.76;99595.09;12190606;19;20022;-81
2022/06/03 13:29:44;;;;;;;3.63;3.05;;;;;;;31.80;31.60;99592.44;12213065;19;20014;-81
2022/06/03 13:34:10;;;;;;;3.65;3.35;;;;;;;31.14;32.50;99595.19;12185348;19;20018;-81
2022/06/03 13:38:17;;;;;;;7.15;3.85;;;;;;;30.73;33.36;99588.69;12213083;19;20007;-81
2022/06/03 13:46:40;;;;;;;6.07;3.08;;;;;;;29.59;34.39;99591.75;12209456;19;20023;-81
2022/06/03 13:50:43;;;;;;;4.65;3.63;;;;;;;29.21;35.36;99589.94;12217192;19;20078;-81
2022/06/03 13:54:49;;;;;;;4.15;3.00;;;;;;;28.96;36.68;99598.84;12178350;19;20031;-81
2022/06/03 13:58:52;;;;;;;4.35;3.63;;;;;;;28.80;36.24;99598.97;12230169;19;20007;-80
2022/06/03 14:03:09;;;;;;;10.65;3.70;;;;;;;28.66;37.15;99600.75;12213823;19;20035;-80
2022/06/03 14:07:10;;;;;;;8.35;3.97;;;;;;;28.34;39.10;99601.72;12180317;19;20031;-80
2022/06/03 14:11:19;;;;;;;8.05;5.97;;;;;;;27.93;42.31;99598.47;12199034;19;20015;-80
2022/06/03 14:15:35;;;;;;;7.20;4.63;;;;;;;27.58;44.55;99603.31;12183843;19;20540;-80
2022/06/03 14:19:45;;;;;;;5.28;3.65;;;;;;;27.33;46.05;99614.03;12212894;19;20421;-80
2022/06/03 14:24:07;;;;;;;8.75;3.38;;;;;;;27.17;44.13;99625.38;12214787;19;20036;-80
2022/06/03 14:28:37;;;;;;;7.72;3.30;;;;;;;26.88;42.77;99623.81;12187221;19;20102;-80
2022/06/03 14:32:48;;;;;;;7.47;2.97;;;;;;;26.59;43.50;99623.88;12214472;19;20103;-80
2022/06/03 14:36:53;;;;;;;6.32;2.72;;;;;;;26.29;44.44;99625.41;12179403;19;20022;-80
2022/06/03 14:40:57;;;;;;;3.95;2.80;;;;;;;26.14;44.33;99633.44;12208583;19;20011;-80
2022/06/03 14:45:01;;;;;;;5.50;3.05;;;;;;;26.01;44.70;99637.50;12216018;19;20027;-80
2022/06/03 14:49:12;;;;;;;6.40;2.85;;;;;;;25.91;45.05;99647.31;12198258;19;20443;-80
2022/06/03 14:53:22;;;;;;;5.72;3.67;;;;;;;25.85;46.68;99657.22;12204673;19;20011;-80
2022/06/03 14:57:34;;;;;;;7.53;3.50;;;;;;;25.72;47.21;99663.19;12194580;19;20007;-80
2022/06/03 15:01:45;;;;;;;7.37;3.60;;;;;;;25.47;48.67;99654.75;12214182;19;20006;-79
2022/06/03 15:05:53;;;;;;;5.07;3.72;;;;;;;25.21;50.13;99655.13;12207027;19;20070;-80
2022/06/03 15:10:00;;;;;;;4.07;3.47;;;;;;;24.93;50.96;99644.50;12180592;19;20010;-80
2022/06/03 15:14:14;;;;;;;4.20;3.20;;;;;;;24.70;52.02;99657.34;12205872;19;20031;-80
2022/06/03 15:18:19;;;;;;;4.28;3.88;;;;;;;24.56;52.66;99652.84;12210578;19;20097;-80
2022/06/03 15:22:30;;;;;;;6.72;3.85;;;;;;;24.54;54.32;99665.66;12196743;19;20018;-80
2022/06/03 15:26:37;;;;;;;7.53;4.05;;;;;;;24.35;55.50;99668.94;12208358;19;20070;-80
2022/06/03 15:30:45;;;;;;;5.45;3.53;;;;;;;24.12;55.96;99665.66;12186632;19;20024;-80
2022/06/03 15:34:47;;;;;;;6.47;3.40;;;;;;;24.01;56.05;99650.38;12207647;19;20015;-80
2022/06/03 15:38:54;;;;;;;5.05;4.13;;;;;;;24.03;56.34;99653.66;12202625;19;20077;-80
2022/06/03 15:43:04;;;;;;;5.60;3.80;;;;;;;24.04;56.11;99647.69;12189124;19;20014;-80
2022/06/03 15:47:12;;;;;;;5.47;3.67;;;;;;;24.05;55.63;99638.06;12207230;19;20010;-80
2022/06/03 15:51:20;;;;;;;4.60;3.70;;;;;;;24.04;56.05;99618.72;12205996;19;20371;-80
2022/06/03 15:55:31;;;;;;;8.30;4.25;;;;;;;24.12;56.27;99615.00;12185799;19;20015;-80
2022/06/03 15:59:46;;;;;;;7.85;4.03;;;;;;;24.24;56.69;99598.19;12209850;19;20480;-80
2022/06/03 16:04:23;;;;;;;6.55;3.60;;;;;;;24.52;56.41;99594.75;12182476;19;20014;-80
2022/06/03 16:08:47;;;;;;;5.15;3.38;;;;;;;24.82;55.56;99588.94;12208881;19;20007;-80
2022/06/03 16:13:13;;;;;;;5.45;3.33;;;;;;;24.98;54.88;99585.03;12180330;19;20007;-80
2022/06/03 16:17:37;;;;;;;5.40;3.20;;;;;;;25.08;53.84;99589.41;12226986;19;20013;-80
2022/06/03 16:21:48;;;;;;;7.70;3.30;;;;;;;25.23;52.76;99579.47;12192697;19;20746;-80
2022/06/03 16:26:41;;;;;;;6.63;4.13;;;;;;;25.13;52.89;99585.53;12226825;19;20025;-80
2022/06/03 16:31:07;;;;;;;6.38;3.20;;;;;;;24.78;54.16;99581.19;12192732;19;20042;-80
2022/06/03 16:35:24;;;;;;;6.53;3.47;;;;;;;24.42;55.14;99590.41;12224817;19;20014;-80
2022/06/03 16:39:44;;;;;;;5.00;3.65;;;;;;;24.20;54.90;99593.56;12200612;19;20015;-80
2022/06/03 16:44:05;;;;;;;5.85;3.83;;;;;;;24.04;54.98;99594.22;12237742;19;20048;-79
2022/06/03 16:48:45;;;;;;;6.60;4.10;;;;;;;23.95;55.54;99582.22;12252780;19;20017;-79
2022/06/03 16:52:52;;;;;;;7.57;5.03;;;;;;;23.86;55.17;99598.34;12228936;19;20002;-79
2022/06/03 16:57:19;;;;;;;8.43;4.78;;;;;;;23.65;55.98;99606.78;12243646;19;20010;-79
2022/06/03 17:01:26;;;;;;;6.28;3.78;;;;;;;23.46;56.12;99595.97;12220748;19;20014;-79
2022/06/03 17:05:29;;;;;;;6.80;3.67;;;;;;;23.29;56.83;99593.25;12256611;19;20010;-79
2022/06/03 17:09:32;;;;;;;;;;;;;;;23.13;57.27;99591.03;12205431;19;20338;-79
2022/06/03 17:13:36;;;;;;;4.57;3.78;;;;;;;23.08;57.07;99602.50;12202114;19;19942;-79
2022/06/03 17:17:38;;;;;;;8.15;4.45;;;;;;;22.99;57.24;99604.50;12212624;19;20085;-80
2022/06/03 17:21:57;;;;;;;7.22;4.68;;;;;;;22.92;57.73;99612.63;12181164;19;20462;-78
2022/06/03 17:26:05;;;;;;;10.18;6.20;;;;;;;22.82;58.59;99607.38;12213475;19;20007;-79
2022/06/03 17:30:15;;;;;;;6.32;3.92;;;;;;;22.72;58.83;99612.19;12248286;19;20022;-79
2022/06/03 17:34:36;;;;;;;8.50;4.10;;;;;;;22.64;58.51;99621.47;12221699;19;20063;-80
2022/06/03 17:39:02;;;;;;;5.75;3.47;;;;;;;22.57;60.22;99626.78;12220583;19;20023;-80
2022/06/03 17:43:22;;;;;;;6.65;4.18;;;;;;;22.50;59.85;99618.88;12198002;19;20006;-79
2022/06/03 17:47:52;;;;;;;6.05;3.70;;;;;;;22.43;60.95;99612.94;12221524;19;20018;-80
2022/06/03 17:56:52;;;;;;;8.85;3.67;;;;;;;22.33;62.29;99616.09;12209689;19;20476;-80
2022/06/03 18:01:01;;;;;;;5.78;3.45;;;;;;;22.25;62.68;99623.38;12183617;19;20007;-79
2022/06/03 18:05:22;;;;;;;4.82;3.65;;;;;;;22.17;63.50;99626.22;12202770;19;20013;-80
2022/06/03 18:09:36;;;;;;;5.13;3.72;;;;;;;22.06;63.89;99634.91;12182230;19;20014;-79
2022/06/03 18:13:51;;;;;;;5.68;3.88;;;;;;;21.94;64.81;99634.75;12203740;19;20544;-79
2022/06/03 18:18:22;;;;;;;5.82;3.90;;;;;;;21.85;65.93;99626.34;12193894;19;20030;-80
2022/06/03 18:22:35;;;;;;;5.55;4.22;;;;;;;21.71;67.37;99622.84;12176459;19;20474;-79
2022/06/03 18:27:03;;;;;;;6.50;3.95;;;;;;;21.52;70.35;99627.97;12198727;19;20070;-79
2022/06/03 18:31:11;;;;;;;6.30;4.03;;;;;;;21.37;70.90;99632.06;12176433;19;20007;-79
2022/06/03 18:35:21;;;;;;;5.47;4.25;;;;;;;21.20;72.40;99635.59;12195088;19;20017;-79
2022/06/03 18:39:32;;;;;;;7.95;4.82;;;;;;;21.07;72.78;99636.56;12176241;19;20014;-79
2022/06/03 18:43:43;;;;;;;5.18;4.28;;;;;;;20.98;73.63;99656.13;12200434;19;20011;-79
2022/06/03 18:48:13;;;;;;;7.55;5.00;;;;;;;20.92;74.47;99663.84;12195642;19;20031;-79
2022/06/03 18:52:36;;;;;;;6.80;4.20;;;;;;;20.82;74.69;99652.94;12181823;19;20032;-79
2022/06/03 18:57:00;;;;;;;5.60;4.05;;;;;;;20.72;75.59;99658.81;12205668;19;20496;-79
2022/06/03 19:01:06;;;;;;;;;;;;;;;20.57;77.37;99654.44;12188387;19;20511;-80
2022/06/03 19:05:23;;;;;;;6.20;4.95;;;;;;;20.42;78.96;99658.44;12201866;19;19978;-80
2022/06/03 19:09:40;;;;;;;6.65;4.95;;;;;;;20.24;81.22;99684.63;12180351;19;20010;-79
2022/06/03 19:13:54;;;;;;;7.90;5.35;;;;;;;20.06;82.18;99672.47;12202649;19;20029;-79
2022/06/03 19:18:03;;;;;;;9.68;4.82;;;;;;;19.95;83.74;99666.28;12196279;19;20022;-79
2022/06/03 19:22:30;;;;;;;8.35;5.18;;;;;;;19.86;85.94;99658.97;12175973;19;20436;-79
2022/06/03 19:26:34;;;;;;;6.95;5.13;;;;;;;19.79;85.83;99662.22;12199152;19;20025;-79
2022/06/03 19:30:36;;;;;;;9.95;5.40;;;;;;;19.74;86.30;99660.34;12168945;19;20541;-79
2022/06/03 19:34:40;;;;;;;10.10;5.18;;;;;;;19.71;86.36;99660.16;12191121;19;20022;-79
2022/06/03 19:39:01;;;;;;;7.30;5.47;;;;;;;19.68;87.54;99669.19;12192350;19;20074;-80
2022/06/03 19:43:46;;;;;;;6.97;5.18;;;;;;;19.63;88.21;99664.50;12174153;19;20047;-78
2022/06/03 19:48:21;;;;;;;8.15;5.40;;;;;;;19.59;88.58;99669.88;12195803;19;20069;-79
2022/06/03 19:52:41;;;;;;;8.25;5.20;;;;;;;19.55;88.56;99677.25;12191364;19;20085;-79
2022/06/03 19:56:52;;;;;;;6.63;5.20;;;;;;;19.53;88.59;99681.47;12216311;19;20003;-79
2022/06/03 20:00:58;;;;;;;9.25;5.35;;;;;;;19.52;88.53;99682.63;12192067;19;20034;-79
2022/06/03 20:05:23;;;;;;;9.82;5.57;;;;;;;19.52;88.61;99693.81;12209627;19;20010;-80
2022/06/03 20:09:46;;;;;;;6.25;4.97;;;;;;;19.57;88.16;99702.91;12183993;19;20062;-80
2022/06/03 20:13:53;;;;;;;6.25;5.15;;;;;;;19.58;87.96;99706.53;12209361;19;20015;-80
2022/06/03 20:17:57;;;;;;;7.18;5.28;;;;;;;19.58;87.40;99707.34;12201730;19;20010;-80
2022/06/03 20:22:16;;;;;;;7.38;5.68;;;;;;;19.57;87.71;99716.03;12191127;19;20070;-80
2022/06/03 20:26:24;;;;;;;8.98;5.50;;;;;;;19.56;88.03;99717.19;12205352;19;20023;-79
2022/06/03 20:30:30;;;;;;;10.10;5.70;;;;;;;19.47;88.77;99731.06;12190139;19;20010;-79
2022/06/03 20:35:01;;;;;;;8.10;6.07;;;;;;;19.35;90.89;99739.13;12206671;19;20078;-79
2022/06/03 20:39:28;;;;;;;10.50;7.03;;;;;;;19.32;91.51;99743.38;12217246;19;20069;-79
2022/06/03 20:43:59;;;;;;;9.35;7.10;;;;;;;19.34;91.86;99755.09;12187240;19;20036;-79
2022/06/03 20:48:13;;;;;;;8.68;6.57;;;;;;;19.33;91.63;99756.22;12204740;19;20034;-79